createdAt,value
2017-08-11T00:02:03.455Z,32.50
2017-08-11T00:04:31.709Z,33.40
2017-08-11T00:06:59.233Z,33.33
2017-08-11T00:09:26.696Z,33.20
2017-08-11T00:11:54.166Z,32.03
2017-08-11T00:14:22.276Z,28.47
2017-08-11T00:16:50.500Z,28.90
2017-08-11T00:19:17.970Z,30.67
2017-08-11T00:21:45.458Z,26.07
2017-08-11T00:24:12.926Z,27.93
2017-08-11T00:26:41.152Z,24.23
2017-08-11T00:29:08.640Z,27.00
2017-08-11T00:31:36.108Z,25.63
2017-08-11T00:34:03.566Z,27.73
2017-08-11T00:36:31.817Z,24.53
2017-08-11T00:38:59.289Z,24.43
2017-08-11T00:41:26.757Z,22.37
2017-08-11T00:43:54.988Z,25.53
2017-08-11T00:46:22.469Z,24.40
2017-08-11T00:48:49.931Z,25.03
2017-08-11T00:51:17.405Z,20.30
2017-08-11T00:53:45.652Z,19.77
2017-08-11T00:56:13.842Z,21.00
2017-08-11T00:58:41.960Z,17.93
2017-08-11T01:01:09.450Z,18.83
2017-08-11T01:03:36.917Z,18.50
2017-08-11T01:06:04.545Z,20.47
2017-08-11T01:08:32.026Z,18.33
2017-08-11T01:10:59.509Z,18.17
2017-08-11T01:13:27.737Z,19.50
2017-08-11T01:15:56.057Z,21.53
2017-08-11T01:18:24.399Z,18.97
2017-08-11T01:20:52.025Z,19.70
2017-08-11T01:23:19.498Z,19.67
2017-08-11T01:25:46.997Z,20.80
2017-08-11T01:28:14.473Z,20.93
2017-08-11T01:30:42.804Z,20.03
2017-08-11T01:33:10.309Z,19.80
2017-08-11T01:35:38.569Z,19.47
2017-08-11T01:38:06.041Z,21.37
2017-08-11T01:40:34.342Z,18.30
2017-08-11T01:43:01.807Z,22.37
2017-08-11T01:45:29.267Z,20.93
2017-08-11T01:47:56.741Z,19.97
2017-08-11T01:50:24.229Z,21.50
2017-08-11T01:52:51.886Z,20.37
2017-08-11T01:55:19.355Z,20.10
2017-08-11T01:57:47.597Z,21.57
2017-08-11T02:00:15.094Z,21.17
2017-08-11T02:02:43.449Z,22.13
2017-08-11T02:05:10.953Z,22.23
2017-08-11T02:07:38.418Z,20.37
2017-08-11T02:10:06.484Z,21.33
2017-08-11T02:12:33.970Z,20.30
2017-08-11T02:15:01.438Z,20.57
2017-08-11T02:17:28.993Z,17.77
2017-08-11T02:19:56.482Z,15.40
2017-08-11T02:22:24.713Z,16.47
2017-08-11T02:24:52.185Z,18.83
2017-08-11T02:27:19.649Z,17.10
2017-08-11T02:29:47.129Z,19.00
2017-08-11T02:32:15.361Z,19.97
2017-08-11T02:34:42.842Z,18.47
2017-08-11T02:37:10.306Z,18.03
2017-08-11T02:39:38.570Z,18.73
2017-08-11T02:42:06.033Z,21.47
2017-08-11T02:44:33.508Z,23.27
2017-08-11T02:47:01.776Z,22.80
2017-08-11T02:49:29.237Z,23.57
2017-08-11T02:51:57.456Z,24.00
2017-08-11T02:54:24.944Z,25.77
2017-08-11T02:56:52.435Z,23.23
2017-08-11T02:59:20.665Z,26.23
2017-08-11T03:01:48.153Z,25.73
2017-08-11T03:04:16.106Z,27.17
2017-08-11T03:06:43.572Z,23.10
2017-08-11T03:09:11.822Z,26.37
2017-08-11T03:11:39.289Z,27.37
2017-08-11T03:14:06.764Z,27.13
2017-08-11T03:16:35.101Z,28.67
2017-08-11T03:19:02.592Z,30.07
2017-08-11T03:21:30.055Z,30.63
2017-08-11T03:23:57.532Z,29.60
2017-08-11T03:26:25.014Z,26.67
2017-08-11T03:28:52.492Z,31.60
2017-08-11T03:31:19.969Z,30.77
2017-08-11T03:33:47.439Z,34.63
2017-08-11T03:36:14.913Z,40.57
2017-08-11T03:38:42.410Z,36.73
2017-08-11T03:41:09.906Z,33.83
2017-08-11T03:43:37.388Z,37.70
2017-08-11T03:46:04.851Z,38.50
2017-08-11T03:48:32.337Z,38.83
2017-08-11T03:50:59.816Z,45.77
2017-08-11T03:53:27.390Z,41.57
2017-08-11T03:55:55.634Z,41.13
2017-08-11T03:58:23.105Z,38.33
2017-08-11T04:00:50.703Z,38.63
2017-08-11T04:03:18.190Z,41.83
2017-08-11T04:05:45.682Z,40.33
2017-08-11T04:08:13.154Z,39.10
2017-08-11T04:10:41.419Z,34.70
2017-08-11T04:13:08.965Z,35.33
2017-08-11T04:15:36.433Z,39.47
2017-08-11T04:18:03.960Z,35.60
2017-08-11T04:20:31.418Z,35.97
2017-08-11T04:22:58.929Z,36.03
2017-08-11T04:25:27.258Z,33.80
2017-08-11T04:27:54.744Z,34.10
2017-08-11T04:30:22.245Z,28.43
2017-08-11T04:32:49.829Z,29.00
2017-08-11T04:35:17.325Z,30.63
2017-08-11T04:37:45.580Z,28.47
2017-08-11T04:40:13.045Z,28.13
2017-08-11T04:42:40.629Z,28.10
2017-08-11T04:45:08.873Z,27.70
2017-08-11T04:47:36.345Z,26.27
2017-08-11T04:50:03.826Z,29.20
2017-08-11T04:52:32.133Z,29.60
2017-08-11T04:54:59.617Z,29.90
2017-08-11T04:57:27.086Z,29.03
2017-08-11T04:59:54.572Z,28.03
2017-08-11T05:02:22.036Z,29.97
2017-08-11T05:04:49.521Z,29.97
2017-08-11T05:07:16.977Z,27.73
2017-08-11T05:09:44.562Z,31.10
2017-08-11T05:12:12.042Z,30.33
2017-08-11T05:14:39.508Z,27.40
2017-08-11T05:17:07.753Z,29.30
2017-08-11T05:19:35.384Z,28.80
2017-08-11T05:22:02.865Z,25.07
2017-08-11T05:24:30.338Z,27.07
2017-08-11T05:26:57.801Z,26.73
2017-08-11T05:29:26.043Z,28.03
2017-08-11T05:31:53.520Z,26.83
2017-08-11T05:34:20.998Z,25.40
2017-08-11T05:36:49.231Z,24.80
2017-08-11T05:39:16.721Z,22.97
2017-08-11T05:41:45.004Z,22.57
2017-08-11T05:44:12.464Z,22.20
2017-08-11T05:46:40.710Z,17.60
2017-08-11T05:49:08.661Z,17.00
2017-08-11T05:51:36.143Z,16.70
2017-08-11T05:54:03.624Z,16.50
2017-08-11T05:56:31.862Z,17.10
2017-08-11T05:58:59.342Z,15.30
2017-08-11T06:01:27.587Z,17.20
2017-08-11T06:03:55.061Z,15.37
2017-08-11T06:06:22.556Z,15.47
2017-08-11T06:08:50.042Z,15.40
2017-08-11T06:11:17.497Z,15.50
2017-08-11T06:13:44.985Z,15.93
2017-08-11T06:16:12.537Z,16.83
2017-08-11T06:18:40.025Z,15.90
2017-08-11T06:21:08.265Z,18.97
2017-08-11T06:23:35.754Z,17.60
2017-08-11T06:26:03.229Z,16.57
2017-08-11T06:28:31.569Z,17.17
2017-08-11T06:30:59.051Z,14.90
2017-08-11T06:33:27.281Z,15.07
2017-08-11T06:35:54.782Z,17.13
2017-08-11T06:38:23.205Z,16.37
2017-08-11T06:40:50.691Z,16.17
2017-08-11T06:43:18.220Z,17.63
2017-08-11T06:45:45.697Z,17.20
2017-08-11T06:48:13.184Z,18.57
2017-08-11T06:50:40.733Z,23.10
2017-08-11T06:53:08.262Z,20.17
2017-08-11T06:55:35.877Z,22.00
2017-08-11T06:58:04.130Z,19.27
2017-08-11T07:00:31.626Z,20.47
2017-08-11T07:03:00.161Z,18.20
2017-08-11T07:05:27.858Z,18.03
2017-08-11T07:07:55.355Z,18.40
2017-08-11T07:10:22.865Z,22.33
2017-08-11T07:12:50.357Z,20.40
2017-08-11T07:15:17.937Z,19.87
2017-08-11T07:17:45.410Z,20.70
2017-08-11T07:20:12.886Z,16.43
2017-08-11T07:22:41.332Z,16.60
2017-08-11T07:25:08.894Z,14.20
2017-08-11T07:27:36.378Z,16.83
2017-08-11T07:30:04.601Z,16.80
2017-08-11T07:32:33.037Z,16.10
2017-08-11T07:35:00.599Z,17.03
2017-08-11T07:37:28.834Z,15.87
2017-08-11T07:39:56.408Z,18.47
2017-08-11T07:42:23.889Z,15.87
2017-08-11T07:44:52.130Z,20.73
2017-08-11T07:47:19.605Z,24.53
2017-08-11T07:49:47.846Z,24.63
2017-08-11T07:52:15.333Z,26.10
2017-08-11T07:54:42.852Z,29.20
2017-08-11T07:57:10.353Z,26.37
2017-08-11T07:59:37.830Z,25.60
2017-08-11T08:02:05.294Z,26.40
2017-08-11T08:04:32.835Z,29.03
2017-08-11T08:07:01.093Z,24.83
2017-08-11T08:09:29.049Z,27.70
2017-08-11T08:11:56.517Z,23.13
2017-08-11T08:14:23.995Z,28.00
2017-08-11T08:16:52.285Z,27.80
2017-08-11T08:19:20.706Z,28.77
2017-08-11T08:21:48.186Z,30.10
2017-08-11T08:24:15.670Z,28.30
2017-08-11T08:26:43.925Z,27.73
2017-08-11T08:29:11.482Z,26.80
2017-08-11T08:31:38.941Z,28.87
2017-08-11T08:34:07.214Z,23.40
2017-08-11T08:36:34.778Z,24.47
2017-08-11T08:39:02.241Z,24.43
2017-08-11T08:41:30.474Z,25.63
2017-08-11T08:43:58.013Z,27.00
2017-08-11T08:46:25.484Z,27.20
2017-08-11T08:48:52.946Z,27.40
2017-08-11T08:51:20.459Z,28.40
2017-08-11T08:53:48.689Z,30.20
2017-08-11T08:56:16.185Z,29.87
2017-08-11T08:58:44.631Z,27.97
2017-08-11T09:01:12.105Z,26.80
2017-08-11T09:03:39.608Z,29.90
2017-08-11T09:06:07.097Z,24.40
2017-08-11T09:08:34.786Z,30.00
2017-08-11T09:11:03.213Z,26.37
2017-08-11T09:13:30.694Z,24.57
2017-08-11T09:15:58.839Z,22.97
2017-08-11T09:18:26.318Z,22.30
2017-08-11T09:20:53.860Z,22.80
2017-08-11T09:23:21.477Z,19.33
2017-08-11T09:26:02.468Z,19.50
2017-08-11T09:28:42.295Z,17.93
2017-08-11T09:31:22.505Z,17.70
2017-08-11T09:34:11.530Z,16.17
2017-08-11T09:36:39.932Z,15.63
2017-08-11T09:39:07.416Z,18.10
2017-08-11T09:41:34.907Z,16.13
2017-08-11T09:44:03.229Z,13.63
2017-08-11T09:46:30.721Z,14.60
2017-08-11T09:48:59.204Z,13.03
2017-08-11T09:51:26.869Z,14.00
2017-08-11T09:53:54.413Z,10.23
2017-08-11T09:56:21.873Z,9.50
2017-08-11T09:58:49.353Z,10.33
2017-08-11T10:01:17.665Z,10.40
2017-08-11T10:03:45.145Z,11.20
2017-08-11T10:06:12.630Z,8.87
2017-08-11T10:08:40.102Z,9.47
2017-08-11T10:11:08.353Z,10.30
2017-08-11T10:13:35.822Z,9.70
2017-08-11T10:16:03.296Z,9.73
2017-08-11T10:18:31.539Z,10.20
2017-08-11T10:20:59.009Z,10.30
2017-08-11T10:23:27.283Z,8.93
2017-08-11T10:25:54.845Z,9.27
2017-08-11T10:28:23.083Z,9.53
2017-08-11T10:30:50.567Z,8.87
2017-08-11T10:33:18.774Z,7.43
2017-08-11T10:35:47.007Z,7.80
2017-08-11T10:38:14.682Z,7.60
2017-08-11T10:40:42.148Z,7.70
2017-08-11T10:43:10.402Z,6.60
2017-08-11T10:45:37.889Z,7.13
2017-08-11T10:48:06.114Z,5.77
2017-08-11T10:50:33.599Z,5.93
2017-08-11T10:53:01.090Z,5.37
2017-08-11T10:55:28.567Z,7.20
2017-08-11T10:57:56.031Z,6.40
2017-08-11T11:00:23.598Z,6.40
2017-08-11T11:02:51.183Z,6.70
2017-08-11T11:05:18.649Z,5.87
2017-08-11T11:07:46.120Z,7.27
2017-08-11T11:10:14.345Z,7.50
2017-08-11T11:12:41.826Z,6.93
2017-08-11T11:15:09.353Z,6.37
2017-08-11T11:17:36.840Z,6.23
2017-08-11T11:20:04.318Z,7.80
2017-08-11T11:22:32.588Z,6.03
2017-08-11T11:25:00.049Z,7.03
2017-08-11T11:27:28.273Z,6.03
2017-08-11T11:29:55.745Z,6.90
2017-08-11T11:32:23.210Z,5.93
2017-08-11T11:34:50.695Z,5.90
2017-08-11T11:37:18.932Z,6.30
2017-08-11T11:39:46.394Z,6.70
2017-08-11T11:42:13.865Z,5.73
2017-08-11T11:44:41.322Z,6.10
2017-08-11T11:47:08.822Z,6.60
2017-08-11T11:49:36.284Z,7.03
2017-08-11T11:52:03.745Z,5.50
2017-08-11T11:54:31.216Z,4.97
2017-08-11T11:56:58.713Z,5.17
2017-08-11T11:59:27.837Z,5.10
2017-08-11T12:01:56.938Z,5.13
2017-08-11T12:04:26.072Z,5.17
2017-08-11T12:06:55.203Z,6.00
2017-08-11T12:09:24.321Z,5.80
2017-08-11T12:11:53.424Z,6.10
2017-08-11T12:14:22.544Z,5.30
2017-08-11T12:16:51.652Z,5.60
2017-08-11T12:19:20.785Z,5.00
2017-08-11T12:21:49.900Z,5.00
2017-08-11T12:24:19.007Z,5.53
2017-08-11T12:26:48.123Z,5.80
2017-08-11T12:29:17.295Z,5.17
2017-08-11T12:31:46.401Z,5.23
2017-08-11T12:34:15.528Z,4.77
2017-08-11T12:36:44.649Z,5.20
2017-08-11T12:39:13.770Z,4.90
2017-08-11T12:41:42.884Z,5.27
2017-08-11T12:44:12.016Z,5.20
2017-08-11T12:46:41.125Z,5.00
2017-08-11T12:49:10.331Z,5.27
2017-08-11T12:51:39.444Z,5.73
2017-08-11T12:54:08.548Z,4.90
2017-08-11T12:56:37.668Z,5.83
2017-08-11T12:59:06.773Z,6.13
2017-08-11T13:01:35.901Z,5.37
2017-08-11T13:04:05.012Z,4.87
2017-08-11T13:06:34.131Z,5.07
2017-08-11T13:09:03.260Z,5.10
2017-08-11T13:11:32.388Z,4.70
2017-08-11T13:14:01.528Z,5.07
2017-08-11T13:16:30.644Z,6.57
2017-08-11T13:18:59.798Z,4.83
2017-08-11T13:21:28.899Z,4.80
2017-08-11T13:23:58.008Z,4.80
2017-08-11T13:26:27.129Z,5.70
2017-08-11T13:28:56.240Z,4.97
2017-08-11T13:31:25.380Z,4.97
2017-08-11T13:33:54.712Z,5.20
2017-08-11T13:36:23.821Z,5.00
2017-08-11T13:38:53.124Z,5.27
2017-08-11T13:41:22.241Z,4.90
2017-08-11T13:43:51.349Z,5.87
2017-08-11T13:46:20.453Z,5.20
2017-08-11T13:48:49.577Z,5.10
2017-08-11T13:51:18.698Z,5.57
2017-08-11T13:53:47.818Z,5.03
2017-08-11T13:56:16.933Z,5.13
2017-08-11T13:58:46.058Z,4.60
2017-08-11T14:01:15.168Z,5.77
2017-08-11T14:03:44.288Z,5.47
2017-08-11T14:06:13.425Z,6.47
2017-08-11T14:08:42.545Z,6.00
2017-08-11T14:11:11.741Z,6.33
2017-08-11T14:13:40.861Z,5.87
2017-08-11T14:16:09.990Z,5.30
2017-08-11T14:18:39.098Z,5.47
2017-08-11T14:21:08.215Z,6.37
2017-08-11T14:23:43.161Z,5.47
2017-08-11T14:26:12.300Z,5.90
2017-08-11T14:28:41.431Z,6.30
2017-08-11T14:31:10.597Z,6.57
2017-08-11T14:33:39.717Z,6.60
2017-08-11T14:36:08.860Z,6.73
2017-08-11T14:38:37.989Z,5.80
2017-08-11T14:41:07.129Z,6.30
2017-08-11T14:43:36.248Z,5.63
2017-08-11T14:46:05.377Z,6.10
2017-08-11T14:48:34.499Z,5.73
2017-08-11T14:51:03.592Z,5.60
2017-08-11T14:53:32.717Z,5.33
2017-08-11T14:56:01.839Z,5.90
2017-08-11T14:58:31.189Z,5.27
2017-08-11T15:01:00.297Z,8.50
2017-08-11T15:03:29.409Z,5.83
2017-08-11T15:05:58.523Z,5.40
2017-08-11T15:08:27.781Z,5.13
2017-08-11T15:10:56.918Z,4.40
2017-08-11T15:13:26.117Z,5.27
2017-08-11T15:15:55.319Z,5.30
2017-08-11T15:18:24.464Z,4.40
2017-08-11T15:20:53.594Z,4.53
2017-08-11T15:23:22.717Z,4.50
2017-08-11T15:25:51.831Z,4.60
2017-08-11T15:28:20.968Z,4.30
2017-08-11T15:30:50.098Z,5.00
2017-08-11T15:33:19.268Z,4.57
2017-08-11T15:35:48.433Z,4.73
2017-08-11T15:38:17.597Z,4.10
2017-08-11T15:40:46.749Z,4.50
2017-08-11T15:43:15.853Z,4.77
2017-08-11T15:45:44.984Z,4.80
2017-08-11T15:48:14.106Z,4.50
2017-08-11T15:50:43.229Z,4.37
2017-08-11T15:53:12.348Z,4.90
2017-08-11T15:55:41.448Z,5.57
2017-08-11T15:58:10.612Z,5.87
2017-08-11T16:00:39.809Z,5.70
2017-08-11T16:03:08.978Z,4.60
2017-08-11T16:05:38.116Z,4.80
2017-08-11T16:08:08.064Z,4.30
2017-08-11T16:10:37.170Z,5.00
2017-08-11T16:13:06.344Z,3.63
2017-08-11T16:15:35.540Z,5.10
2017-08-11T16:18:04.662Z,4.83
2017-08-11T16:20:33.774Z,4.70
2017-08-11T16:23:03.176Z,5.97
2017-08-11T16:25:32.284Z,5.03
2017-08-11T16:28:01.433Z,5.90
2017-08-11T16:30:30.594Z,6.23
2017-08-11T16:32:59.728Z,5.60
2017-08-11T16:35:28.841Z,5.00
2017-08-11T16:37:57.971Z,86.40
2017-08-11T16:40:27.091Z,36.37
2017-08-11T16:42:56.246Z,64.03
2017-08-11T16:45:25.358Z,7.13
2017-08-11T16:47:54.495Z,6.43
2017-08-11T16:50:23.609Z,6.80
2017-08-11T16:52:52.752Z,6.50
2017-08-11T16:55:21.870Z,5.40
2017-08-11T16:57:50.989Z,6.30
2017-08-11T17:00:20.124Z,5.73
